Time;durP1;ratioP1;P1;durP2;ratioP2;P2;SDS_P1;SDS_P2;PMS_P1;PMS_P2;Temp;Humidity;BMP_temperature;BMP_pressure;BME280_temperature;BME280_humidity;BME280_pressure;Samples;Min_cycle;Max_cycle;Signal;HPM_P1;HPM_P2
2022/03/28 00:01:39;;;;;;;16.75;11.73;;;;;;;10.93;51.17;100553.66;5071829;28;20536;-58
2022/03/28 00:04:06;;;;;;;16.57;11.33;;;;;;;10.81;51.34;100566.16;5073517;28;20282;-58
2022/03/28 00:06:34;;;;;;;19.73;10.70;;;;;;;10.64;52.34;100554.44;5073088;28;20582;-58
2022/03/28 00:09:01;;;;;;;22.57;9.83;;;;;;;10.57;52.47;100557.66;5073291;28;20210;-57
2022/03/28 00:11:28;;;;;;;17.03;10.13;;;;;;;10.62;52.73;100561.25;5073154;28;20274;-58
2022/03/28 00:13:55;;;;;;;16.63;11.47;;;;;;;10.65;52.70;100549.38;5072209;28;20437;-58
2022/03/28 00:16:22;;;;;;;16.40;10.93;;;;;;;10.69;52.33;100545.19;5073124;28;20433;-58
2022/03/28 00:18:49;;;;;;;19.10;10.90;;;;;;;10.62;52.52;100545.81;5073075;28;20697;-58
2022/03/28 00:21:16;;;;;;;18.73;11.00;;;;;;;10.50;53.06;100545.41;5072036;28;20282;-58
2022/03/28 00:23:45;;;;;;;16.10;10.03;;;;;;;10.50;53.01;100551.41;5073059;28;20278;-58
2022/03/28 00:26:11;;;;;;;15.20;9.70;;;;;;;10.54;53.17;100553.28;5073078;28;20195;-58
2022/03/28 00:28:38;;;;;;;14.73;9.97;;;;;;;10.49;53.40;100562.50;5072824;28;20199;-57
2022/03/28 00:31:05;;;;;;;18.40;10.03;;;;;;;10.40;53.83;100563.91;5073092;28;20195;-57
2022/03/28 00:33:32;;;;;;;18.40;10.07;;;;;;;10.14;54.47;100569.81;5072772;28;20195;-57
2022/03/28 00:35:59;;;;;;;13.53;9.33;;;;;;;10.14;55.25;100562.13;5072595;28;20195;-58
2022/03/28 00:38:26;;;;;;;18.67;10.33;;;;;;;10.04;55.39;100569.50;5072447;28;20305;-59
2022/03/28 00:40:55;;;;;;;15.83;10.87;;;;;;;9.99;56.13;100578.72;5072571;28;20206;-58
2022/03/28 00:43:22;;;;;;;13.87;10.60;;;;;;;9.98;56.65;100578.66;5072578;28;20282;-58
2022/03/28 00:45:49;;;;;;;15.90;9.77;;;;;;;9.86;57.00;100579.09;5072845;28;20263;-58
2022/03/28 00:48:16;;;;;;;16.87;11.30;;;;;;;9.79;57.39;100568.53;5072371;28;20750;-59
2022/03/28 00:50:43;;;;;;;12.33;9.70;;;;;;;9.80;57.67;100566.06;5072342;28;20286;-58
2022/03/28 00:53:13;;;;;;;17.83;10.47;;;;;;;9.88;57.26;100576.59;5072429;28;20218;-58
2022/03/28 00:55:40;;;;;;;15.70;10.10;;;;;;;9.77;58.17;100567.63;5072370;28;20680;-58
2022/03/28 00:58:08;;;;;;;18.27;11.55;;;;;;;9.70;58.54;100581.91;5071616;28;20890;-58
2022/03/28 01:00:35;;;;;;;19.70;10.93;;;;;;;9.67;58.77;100571.53;5072169;28;20228;-59
2022/03/28 01:03:03;;;;;;;19.70;10.37;;;;;;;9.66;58.84;100579.19;5072126;28;20670;-58
2022/03/28 01:05:31;;;;;;;15.73;10.53;;;;;;;9.35;60.10;100590.84;5072256;28;20221;-58
2022/03/28 01:08:00;;;;;;;14.60;10.33;;;;;;;9.48;60.14;100594.75;5072211;28;20307;-58
2022/03/28 01:10:27;;;;;;;17.10;10.70;;;;;;;9.47;60.30;100593.03;5072033;28;20658;-58
2022/03/28 01:12:54;;;;;;;23.47;11.30;;;;;;;9.35;60.94;100593.44;5072282;28;20192;-58
2022/03/28 01:15:23;;;;;;;18.20;10.40;;;;;;;9.39;60.90;100592.72;5072016;28;20195;-58
2022/03/28 01:18:09;;;;;;;14.30;10.47;;;;;;;9.30;61.61;100589.81;5072183;28;20215;-58
2022/03/28 01:20:39;;;;;;;16.30;10.53;;;;;;;9.35;61.80;100590.84;5071851;28;20249;-58
2022/03/28 01:23:08;;;;;;;36.30;12.27;;;;;;;9.26;62.35;100587.03;5071741;28;20692;-58
2022/03/28 01:25:36;;;;;;;17.20;10.70;;;;;;;9.19;62.68;100591.09;5071945;28;20226;-57
2022/03/28 01:28:03;;;;;;;16.33;11.87;;;;;;;9.19;63.00;100590.19;5071664;28;20201;-58
2022/03/28 01:30:32;;;;;;;14.40;12.00;;;;;;;9.04;63.83;100589.63;5037183;28;20313;-58
2022/03/28 01:33:01;;;;;;;26.30;13.23;;;;;;;9.02;63.64;100593.78;5071593;28;20686;-58
2022/03/28 01:35:33;;;;;;;21.97;13.03;;;;;;;8.99;64.05;100596.22;5071570;28;20205;-58
2022/03/28 01:38:01;;;;;;;24.00;13.93;;;;;;;8.89;64.24;100592.44;5071827;28;20196;-57
2022/03/28 01:40:30;;;;;;;22.70;13.23;;;;;;;8.92;64.35;100599.38;5071298;28;20309;-57
2022/03/28 01:42:58;;;;;;;23.42;14.88;;;;;;;8.94;64.63;100602.84;5071052;28;20442;-58
2022/03/28 01:45:25;;;;;;;17.67;12.67;;;;;;;8.92;64.95;100600.25;5071314;28;20191;-58
2022/03/28 01:47:53;;;;;;;16.23;11.77;;;;;;;8.87;64.65;100597.47;5071629;28;20188;-58
2022/03/28 01:50:20;;;;;;;25.13;12.37;;;;;;;8.92;64.85;100591.69;5071475;28;20194;-58
2022/03/28 01:52:47;;;;;;;18.83;12.27;;;;;;;8.83;65.11;100595.63;5071508;28;20202;-58
2022/03/28 01:55:15;;;;;;;18.23;12.40;;;;;;;8.74;65.71;100596.91;5071477;28;20210;-58
2022/03/28 01:57:45;;;;;;;19.33;12.20;;;;;;;8.59;66.44;100594.63;5071413;28;20293;-58
2022/03/28 02:00:14;;;;;;;15.23;12.03;;;;;;;8.61;67.00;100598.13;5070885;28;20320;-58
2022/03/28 02:02:41;;;;;;;22.10;12.77;;;;;;;8.49;67.70;100596.75;5071072;28;20548;-58
2022/03/28 02:05:11;;;;;;;18.53;12.23;;;;;;;8.53;67.92;100598.59;5070964;28;20673;-58
2022/03/28 02:07:39;;;;;;;22.90;12.63;;;;;;;8.36;68.23;100559.47;5071320;28;20201;-58
2022/03/28 02:10:07;;;;;;;17.00;12.30;;;;;;;8.48;69.01;100600.09;5070878;28;20199;-58
2022/03/28 02:12:34;;;;;;;20.47;12.00;;;;;;;8.41;69.55;100604.06;5070971;28;20205;-58
2022/03/28 02:15:03;;;;;;;23.07;12.43;;;;;;;8.26;70.64;100594.03;5070906;28;20286;-58
2022/03/28 02:17:30;;;;;;;24.63;15.93;;;;;;;8.18;71.23;100599.63;5070137;28;20947;-58
2022/03/28 02:19:57;;;;;;;17.17;13.73;;;;;;;8.24;71.11;100599.91;5070948;28;20215;-58
2022/03/28 02:22:24;;;;;;;18.37;13.13;;;;;;;8.28;71.64;100602.69;5070634;28;20195;-58
2022/03/28 02:24:51;;;;;;;17.70;13.43;;;;;;;8.22;71.27;100606.63;5070918;28;20194;-58
2022/03/28 02:27:18;;;;;;;18.00;13.65;;;;;;;8.17;71.08;100578.28;5070554;28;20440;-58
2022/03/28 02:29:45;;;;;;;22.70;13.27;;;;;;;8.28;71.65;100612.94;5070534;28;20566;-58
2022/03/28 02:32:14;;;;;;;19.00;13.87;;;;;;;8.27;72.25;100613.72;5070375;28;20199;-58
2022/03/28 02:34:41;;;;;;;24.43;13.53;;;;;;;8.21;72.16;100610.03;5070454;28;20191;-58
2022/03/28 02:37:08;;;;;;;20.33;14.63;;;;;;;8.12;73.41;100612.16;5070652;28;20221;-58
2022/03/28 02:39:35;;;;;;;24.00;14.53;;;;;;;8.04;72.94;100610.97;5070392;28;20226;-58
2022/03/28 02:42:03;;;;;;;24.07;15.47;;;;;;;8.06;74.05;100620.44;5070345;28;20195;-58
2022/03/28 02:44:30;;;;;;;24.13;14.97;;;;;;;7.94;74.28;100619.06;5069943;28;20205;-58
2022/03/28 02:46:57;;;;;;;20.00;13.90;;;;;;;8.03;74.55;100619.44;5070236;28;20198;-59
2022/03/28 02:49:26;;;;;;;28.27;16.03;;;;;;;7.89;74.88;100613.69;5070413;28;20277;-58
2022/03/28 02:51:52;;;;;;;21.17;13.97;;;;;;;8.06;74.27;100623.00;5070375;28;20212;-58
2022/03/28 02:54:19;;;;;;;21.23;14.23;;;;;;;8.09;73.81;100618.03;5070305;28;20202;-58
2022/03/28 02:56:46;;;;;;;22.60;14.37;;;;;;;8.12;74.50;100622.41;5070228;28;20245;-59
2022/03/28 02:59:13;;;;;;;31.83;18.30;;;;;;;7.91;75.43;100614.63;5069841;28;20230;-58
2022/03/28 03:01:41;;;;;;;29.23;17.37;;;;;;;8.01;75.47;100623.63;5069991;28;20196;-58
2022/03/28 03:04:07;;;;;;;29.73;16.33;;;;;;;7.98;75.77;100621.81;5070210;28;20193;-58
2022/03/28 03:06:36;;;;;;;23.77;15.40;;;;;;;7.92;75.53;100620.63;5069921;28;20210;-58
2022/03/28 03:09:03;;;;;;;18.37;13.33;;;;;;;7.86;75.95;100630.59;5067544;28;20190;-58
2022/03/28 03:11:30;;;;;;;23.27;15.67;;;;;;;7.87;76.14;100624.69;5070918;28;20232;-58
2022/03/28 03:13:57;;;;;;;22.75;17.58;;;;;;;7.96;76.77;100640.47;5079480;28;20432;-58
2022/03/28 03:16:24;;;;;;;24.10;15.47;;;;;;;8.02;75.82;100639.03;5079578;28;20197;-58
2022/03/28 03:18:51;;;;;;;26.70;14.33;;;;;;;8.00;75.70;100635.53;5078464;28;20243;-60
2022/03/28 03:21:18;;;;;;;22.67;14.20;;;;;;;7.80;76.18;100632.91;5067894;28;20187;-60
2022/03/28 03:23:46;;;;;;;19.10;12.93;;;;;;;7.76;76.81;100638.66;5069283;28;20190;-60
2022/03/28 03:26:13;;;;;;;22.87;13.37;;;;;;;7.78;77.44;100637.06;5075567;28;20265;-61
2022/03/28 03:28:40;;;;;;;19.33;12.80;;;;;;;7.71;76.54;100643.59;5072240;28;20193;-61
2022/03/28 03:31:07;;;;;;;21.63;13.83;;;;;;;7.64;77.30;100619.41;5070110;28;20193;-60
2022/03/28 03:33:34;;;;;;;22.97;13.33;;;;;;;7.75;77.13;100657.41;5070170;28;20200;-59
2022/03/28 03:36:02;;;;;;;21.50;13.47;;;;;;;7.71;76.65;100657.25;5069783;28;20197;-60
2022/03/28 03:38:29;;;;;;;19.83;13.47;;;;;;;7.71;76.65;100659.81;5070133;28;20260;-58
2022/03/28 03:40:57;;;;;;;17.87;13.27;;;;;;;7.78;76.96;100654.97;5069690;28;20215;-58
2022/03/28 03:43:25;;;;;;;23.30;13.60;;;;;;;7.82;76.02;100659.41;5070045;28;20195;-58
2022/03/28 03:45:52;;;;;;;18.77;13.13;;;;;;;7.68;76.91;100663.91;5070049;28;20249;-57
2022/03/28 03:48:20;;;;;;;20.50;12.83;;;;;;;7.63;76.79;100668.81;5070103;28;20222;-58
2022/03/28 03:50:46;;;;;;;20.03;13.53;;;;;;;7.66;77.10;100670.66;5069747;28;20190;-57
2022/03/28 03:53:14;;;;;;;21.63;13.27;;;;;;;7.64;76.34;100674.78;5069677;28;20195;-59
2022/03/28 03:55:41;;;;;;;25.50;13.33;;;;;;;7.48;76.27;100637.41;5068706;28;20195;-60
2022/03/28 03:58:09;;;;;;;26.27;13.30;;;;;;;7.70;76.71;100675.97;5072780;28;20198;-61
2022/03/28 04:00:36;;;;;;;20.98;15.77;;;;;;;7.79;76.17;100678.06;5072194;28;20449;-61
2022/03/28 04:03:03;;;;;;;17.33;12.97;;;;;;;7.90;75.83;100683.66;5074907;28;20190;-61
2022/03/28 04:05:32;;;;;;;19.23;12.37;;;;;;;7.89;75.59;100685.34;5082568;28;20185;-60
2022/03/28 04:08:00;;;;;;;19.83;12.57;;;;;;;7.88;75.65;100685.28;5078344;28;20648;-61
2022/03/28 04:10:27;;;;;;;24.07;13.50;;;;;;;7.86;75.19;100695.44;5073097;28;20191;-60
2022/03/28 04:12:54;;;;;;;22.33;12.87;;;;;;;7.86;74.73;100699.69;5073239;28;20284;-60
2022/03/28 04:15:22;;;;;;;20.70;14.40;;;;;;;7.78;75.82;100701.00;5073131;28;20195;-60
2022/03/28 04:17:49;;;;;;;22.87;13.30;;;;;;;7.90;75.00;100704.16;5073000;28;20673;-61
2022/03/28 04:20:17;;;;;;;19.73;13.87;;;;;;;7.94;74.99;100700.94;5072945;28;20222;-60
2022/03/28 04:22:45;;;;;;;22.07;13.83;;;;;;;7.75;74.29;100676.16;5073254;28;20195;-60
2022/03/28 04:25:13;;;;;;;20.83;13.27;;;;;;;8.05;74.24;100712.50;5071516;28;20450;-61
2022/03/28 04:27:41;;;;;;;19.67;14.20;;;;;;;8.08;73.94;100712.66;5080468;28;20445;-60
2022/03/28 04:30:10;;;;;;;21.77;15.30;;;;;;;8.17;73.77;100716.50;5083417;28;20193;-60
2022/03/28 04:32:38;;;;;;;23.70;14.47;;;;;;;8.26;73.92;100731.41;5078329;28;20201;-60
2022/03/28 04:35:07;;;;;;;29.90;16.67;;;;;;;8.35;73.58;100721.59;5072433;28;20297;-60
2022/03/28 04:37:35;;;;;;;26.50;16.13;;;;;;;8.42;73.27;100723.63;5071133;28;20190;-61
2022/03/28 04:40:03;;;;;;;24.90;14.47;;;;;;;8.41;72.64;100724.44;5072338;28;20206;-61
2022/03/28 04:42:30;;;;;;;29.17;17.30;;;;;;;8.52;72.71;100728.34;5055844;28;20196;-61
2022/03/28 04:44:57;;;;;;;24.70;17.17;;;;;;;8.57;72.94;100736.25;5063561;28;20285;-61
2022/03/28 04:47:24;;;;;;;24.40;16.23;;;;;;;8.47;72.94;100734.06;5072610;28;20199;-61
2022/03/28 04:49:53;;;;;;;23.40;15.93;;;;;;;8.40;72.74;100738.06;5072665;28;20277;-61
2022/03/28 04:52:20;;;;;;;27.73;16.67;;;;;;;8.39;73.51;100738.88;5071945;28;20270;-61
2022/03/28 04:54:46;;;;;;;24.43;15.57;;;;;;;8.40;73.11;100743.19;5072070;28;20194;-60
2022/03/28 04:57:13;;;;;;;30.77;15.67;;;;;;;8.47;72.83;100752.00;5070039;28;20203;-60
2022/03/28 04:59:40;;;;;;;28.03;16.03;;;;;;;8.37;72.98;100745.63;5070762;28;20236;-60
2022/03/28 05:02:07;;;;;;;34.80;17.50;;;;;;;8.32;72.63;100752.22;5079877;28;20684;-60
2022/03/28 05:04:34;;;;;;;22.27;15.73;;;;;;;8.30;72.58;100751.25;5077326;28;20183;-61
2022/03/28 05:07:03;;;;;;;23.83;15.67;;;;;;;8.19;73.23;100749.84;5079046;28;20277;-60
2022/03/28 05:09:29;;;;;;;30.83;15.87;;;;;;;8.06;73.58;100750.09;5071081;28;20661;-60
2022/03/28 05:11:57;;;;;;;21.10;13.80;;;;;;;8.06;73.36;100750.97;5071428;28;20202;-60
2022/03/28 05:14:24;;;;;;;22.43;14.93;;;;;;;8.13;73.28;100755.56;5071740;28;20253;-60
2022/03/28 05:16:51;;;;;;;25.80;16.53;;;;;;;8.04;73.67;100749.16;5071550;28;20689;-59
2022/03/28 05:19:18;;;;;;;27.40;17.85;;;;;;;8.17;73.59;100751.47;5070227;28;20434;-61
2022/03/28 05:21:45;;;;;;;25.13;15.67;;;;;;;8.34;72.98;100750.59;5071467;28;20286;-61
2022/03/28 05:24:14;;;;;;;24.87;15.80;;;;;;;8.53;72.27;100753.16;5061610;28;20200;-61
2022/03/28 05:26:41;;;;;;;27.20;15.87;;;;;;;8.70;70.85;100756.47;5072046;28;20205;-61
2022/03/28 05:29:07;;;;;;;27.70;14.77;;;;;;;8.74;70.23;100753.22;5071432;28;20892;-61
2022/03/28 05:31:34;;;;;;;23.53;15.57;;;;;;;8.83;69.65;100754.50;5071340;28;20219;-61
2022/03/28 05:34:01;;;;;;;34.27;16.63;;;;;;;8.95;69.44;100750.72;5071803;28;20196;-61
2022/03/28 05:36:29;;;;;;;26.47;18.60;;;;;;;9.04;68.67;100769.06;5070587;28;20199;-60
2022/03/28 05:38:56;;;;;;;28.60;16.93;;;;;;;9.13;68.50;100762.63;5071797;28;20215;-60
2022/03/28 05:41:25;;;;;;;20.23;14.83;;;;;;;9.27;67.52;100764.06;5071115;28;20243;-60
2022/03/28 05:43:51;;;;;;;28.30;17.17;;;;;;;9.33;67.04;100763.47;5071253;28;20281;-60
2022/03/28 05:46:19;;;;;;;15.97;13.23;;;;;;;9.42;66.51;100766.41;5071151;28;20678;-60
2022/03/28 05:48:46;;;;;;;22.95;14.57;;;;;;;9.37;66.02;100773.91;5070355;28;20859;-61
2022/03/28 05:51:12;;;;;;;24.40;16.27;;;;;;;9.51;65.48;100774.47;5070773;28;20285;-60
2022/03/28 05:53:39;;;;;;;29.13;16.67;;;;;;;9.72;64.63;100777.91;5070730;28;20192;-60
2022/03/28 05:56:06;;;;;;;33.10;15.17;;;;;;;9.85;63.89;100780.13;5070244;28;20192;-60
2022/03/28 05:58:34;;;;;;;18.77;12.53;;;;;;;9.99;63.34;100784.13;5071182;28;20223;-61
2022/03/28 06:01:01;;;;;;;18.43;13.10;;;;;;;10.05;63.29;100780.94;5070308;28;20680;-60
2022/03/28 06:03:28;;;;;;;22.93;14.10;;;;;;;10.09;62.67;100777.63;5070648;28;20195;-61
2022/03/28 06:05:56;;;;;;;28.10;14.57;;;;;;;10.18;62.13;100782.28;5067218;28;20229;-61
2022/03/28 06:08:23;;;;;;;17.10;13.47;;;;;;;10.14;61.89;100773.59;5056039;28;20701;-61
2022/03/28 06:10:50;;;;;;;22.00;11.47;;;;;;;10.18;61.45;100774.59;5050718;28;20307;-61
2022/03/28 06:13:18;;;;;;;27.90;13.77;;;;;;;10.13;62.04;100771.84;5050561;28;20246;-61
2022/03/28 06:15:48;;;;;;;23.23;14.30;;;;;;;10.21;61.35;100770.44;5050537;28;20500;-60
2022/03/28 06:18:15;;;;;;;25.47;13.67;;;;;;;10.26;61.28;100774.06;5062148;28;20191;-61
2022/03/28 06:20:42;;;;;;;17.73;13.13;;;;;;;10.33;60.86;100776.03;5069674;28;20215;-62
2022/03/28 06:23:12;;;;;;;21.10;12.97;;;;;;;10.43;60.33;100778.16;5070240;28;20688;-60
2022/03/28 06:25:39;;;;;;;37.27;14.00;;;;;;;10.56;59.77;100772.63;5070531;28;20231;-61
2022/03/28 06:28:06;;;;;;;25.83;13.50;;;;;;;10.57;59.55;100770.94;5070180;28;20202;-59
2022/03/28 06:30:33;;;;;;;23.87;13.17;;;;;;;10.53;59.41;100775.09;5070505;28;20290;-60
2022/03/28 06:33:01;;;;;;;26.15;14.48;;;;;;;10.66;59.27;100769.56;5069283;28;20528;-61
2022/03/28 06:35:28;;;;;;;21.20;13.23;;;;;;;10.76;58.00;100770.78;5070133;28;20662;-61
2022/03/28 06:37:55;;;;;;;20.27;12.43;;;;;;;10.92;57.87;100772.19;5070289;28;20278;-60
2022/03/28 06:40:23;;;;;;;30.83;13.07;;;;;;;10.99;57.73;100780.16;5069812;28;20199;-61
2022/03/28 06:42:51;;;;;;;36.73;14.27;;;;;;;11.16;57.74;100778.19;5070807;28;20182;-61
2022/03/28 06:45:18;;;;;;;27.90;16.60;;;;;;;11.28;56.63;100781.19;5084485;28;20534;-61
2022/03/28 06:47:50;;;;;;;18.83;12.30;;;;;;;11.36;56.41;100779.75;5089678;28;20257;-62
2022/03/28 06:50:20;;;;;;;17.73;12.67;;;;;;;11.35;55.84;100771.97;5088978;28;20183;-59
2022/03/28 06:52:47;;;;;;;23.23;12.00;;;;;;;11.36;55.43;100774.59;5070501;28;20201;-58
2022/03/28 06:55:14;;;;;;;22.20;12.33;;;;;;;11.43;55.15;100773.09;5074514;28;20199;-59
2022/03/28 06:57:41;;;;;;;14.57;10.53;;;;;;;11.39;54.03;100769.56;5072571;28;20207;-58
2022/03/28 07:00:10;;;;;;;19.80;11.40;;;;;;;11.36;54.85;100760.84;5072305;28;20333;-58
2022/03/28 07:02:37;;;;;;;18.00;12.30;;;;;;;11.35;54.67;100759.09;5078648;28;20200;-58
2022/03/28 07:05:05;;;;;;;19.00;11.67;;;;;;;11.39;54.75;100760.97;5075430;28;20242;-58
2022/03/28 07:07:41;;;;;;;19.77;12.93;;;;;;;11.44;54.14;100760.28;5076608;28;20279;-59
2022/03/28 07:10:09;;;;;;;26.70;12.80;;;;;;;11.52;54.21;100770.81;5078991;28;20236;-58
2022/03/28 07:12:36;;;;;;;21.50;12.27;;;;;;;11.53;55.09;100770.00;5075387;28;20192;-58
2022/03/28 07:15:04;;;;;;;26.73;11.40;;;;;;;11.47;54.97;100765.53;5079313;28;20244;-58
2022/03/28 07:17:31;;;;;;;17.30;11.10;;;;;;;11.60;54.42;100759.06;5071381;28;20558;-59
2022/03/28 07:19:58;;;;;;;17.60;11.13;;;;;;;11.75;53.78;100763.06;5069687;28;20196;-59
2022/03/28 07:22:27;;;;;;;13.57;10.50;;;;;;;11.75;53.01;100759.63;5069731;28;20206;-60
2022/03/28 07:24:55;;;;;;;14.97;11.60;;;;;;;11.79;53.36;100759.75;5070077;28;20213;-60
2022/03/28 07:27:22;;;;;;;23.57;12.17;;;;;;;11.88;53.45;100758.28;5069059;28;20558;-61
2022/03/28 07:29:49;;;;;;;13.37;11.00;;;;;;;11.83;53.34;100758.16;5068243;28;20199;-60
2022/03/28 07:32:16;;;;;;;17.70;12.13;;;;;;;11.99;52.58;100762.94;5072043;28;20187;-60
2022/03/28 07:34:43;;;;;;;18.13;11.50;;;;;;;12.13;52.44;100755.63;5072873;28;20202;-60
2022/03/28 07:37:10;;;;;;;13.77;10.93;;;;;;;12.21;51.63;100757.63;5072917;28;20282;-61
2022/03/28 07:39:38;;;;;;;17.63;11.83;;;;;;;12.34;51.96;100762.28;5072551;28;20195;-61
2022/03/28 07:42:08;;;;;;;14.43;12.00;;;;;;;12.44;51.60;100758.28;5072957;28;20219;-60
2022/03/28 07:44:35;;;;;;;17.87;11.60;;;;;;;12.47;51.81;100748.03;5073534;28;20206;-60
2022/03/28 07:47:03;;;;;;;17.87;12.23;;;;;;;12.54;51.89;100744.81;5073618;28;20188;-60
2022/03/28 07:49:31;;;;;;;17.30;12.00;;;;;;;12.59;51.83;100748.41;5073434;28;20191;-61
2022/03/28 07:51:58;;;;;;;19.73;12.10;;;;;;;12.34;52.04;100718.47;5073236;28;20191;-61
2022/03/28 07:54:25;;;;;;;20.97;11.97;;;;;;;12.57;52.00;100749.19;5073270;28;20188;-60
2022/03/28 07:56:52;;;;;;;17.10;11.83;;;;;;;12.69;52.06;100747.81;5072916;28;20202;-60
2022/03/28 07:59:21;;;;;;;17.23;11.60;;;;;;;12.79;52.28;100736.06;5072821;28;20192;-60
2022/03/28 08:01:48;;;;;;;15.93;11.70;;;;;;;12.98;52.01;100734.03;5072687;28;20215;-60
2022/03/28 08:04:14;;;;;;;24.43;12.13;;;;;;;12.96;51.69;100734.81;5072655;28;20195;-60
2022/03/28 08:06:41;;;;;;;15.93;12.50;;;;;;;12.81;51.58;100703.44;5072896;28;20188;-60
2022/03/28 08:09:08;;;;;;;19.47;13.40;;;;;;;12.97;51.98;100733.97;5072214;28;20219;-61
2022/03/28 08:11:37;;;;;;;19.17;12.93;;;;;;;13.10;51.58;100730.03;5070600;28;20532;-61
2022/03/28 08:14:05;;;;;;;18.93;12.60;;;;;;;13.34;50.61;100722.91;5071823;28;20199;-60
2022/03/28 08:16:34;;;;;;;19.27;12.83;;;;;;;13.49;51.00;100725.84;5071739;28;20188;-60
2022/03/28 08:19:01;;;;;;;23.43;14.67;;;;;;;13.60;50.13;100720.13;5071431;28;20210;-60
2022/03/28 08:21:28;;;;;;;14.33;11.23;;;;;;;13.47;50.16;100712.91;5071392;28;20216;-60
2022/03/28 08:23:55;;;;;;;17.67;12.23;;;;;;;13.45;50.75;100712.03;5071678;28;20194;-60
2022/03/28 08:26:22;;;;;;;21.50;13.20;;;;;;;13.55;50.70;100706.22;5072319;28;20192;-60
2022/03/28 08:28:49;;;;;;;20.87;12.80;;;;;;;13.43;50.87;100702.50;5072260;28;20708;-60
2022/03/28 08:31:17;;;;;;;19.80;11.93;;;;;;;13.55;50.62;100698.47;5072105;28;20234;-60
2022/03/28 08:33:45;;;;;;;21.90;12.87;;;;;;;13.72;50.17;100691.13;5072221;28;20288;-60
2022/03/28 08:36:12;;;;;;;20.90;12.97;;;;;;;13.85;49.83;100689.66;5072152;28;20264;-60
2022/03/28 08:38:39;;;;;;;18.53;12.53;;;;;;;13.94;49.68;100682.13;5071731;28;20286;-60
2022/03/28 08:41:11;;;;;;;18.03;13.40;;;;;;;13.99;49.42;100670.19;5072236;28;20238;-61
2022/03/28 08:43:38;;;;;;;17.63;13.57;;;;;;;13.81;49.36;100641.38;5070350;28;20437;-60
2022/03/28 08:46:08;;;;;;;19.83;13.27;;;;;;;14.04;48.75;100668.56;5071679;28;20195;-60
2022/03/28 08:48:39;;;;;;;17.30;12.90;;;;;;;14.16;49.24;100667.13;5071662;28;20257;-61
2022/03/28 08:51:08;;;;;;;18.87;12.90;;;;;;;14.27;48.64;100669.91;5071777;28;20194;-60
2022/03/28 08:53:35;;;;;;;18.93;12.90;;;;;;;14.34;47.43;100655.44;5071970;28;20274;-61
2022/03/28 08:56:02;;;;;;;21.38;14.05;;;;;;;14.50;47.65;100654.88;5070471;28;20460;-60
2022/03/28 08:58:29;;;;;;;18.00;13.13;;;;;;;14.56;47.27;100649.81;5071540;28;20193;-60
2022/03/28 09:00:56;;;;;;;23.03;13.37;;;;;;;14.59;47.07;100647.28;5071298;28;20225;-61
2022/03/28 09:03:35;;;;;;;18.73;13.17;;;;;;;14.66;47.47;100642.28;5059212;28;20288;-60
2022/03/28 09:06:10;;;;;;;24.23;13.13;;;;;;;14.63;47.45;100631.00;5067553;28;20203;-61
2022/03/28 09:08:40;;;;;;;18.00;12.97;;;;;;;14.69;47.60;100631.97;5063706;28;20612;-60
2022/03/28 09:11:20;;;;;;;16.87;12.60;;;;;;;14.77;47.37;100630.41;5071295;28;20191;-61
2022/03/28 09:13:47;;;;;;;16.03;11.93;;;;;;;14.78;47.63;100626.06;5071316;28;20214;-61
2022/03/28 09:16:19;;;;;;;17.53;12.10;;;;;;;14.74;47.50;100607.06;5072004;28;20189;-61
2022/03/28 09:18:46;;;;;;;16.53;12.73;;;;;;;15.00;47.32;100625.59;5071627;28;20202;-61
2022/03/28 09:21:16;;;;;;;16.20;12.13;;;;;;;15.05;46.39;100617.91;5052306;28;20628;-60
2022/03/28 09:23:45;;;;;;;17.40;12.30;;;;;;;15.08;46.36;100607.63;5050849;28;20200;-60
2022/03/28 09:26:16;;;;;;;21.83;12.53;;;;;;;14.91;46.41;100607.34;5064122;28;20288;-61
2022/03/28 09:28:49;;;;;;;20.00;12.77;;;;;;;14.90;46.23;100603.00;5070856;28;20622;-61
2022/03/28 09:31:17;;;;;;;18.83;12.60;;;;;;;15.05;45.56;100605.81;5071176;28;20512;-61
2022/03/28 09:33:58;;;;;;;16.57;12.20;;;;;;;15.08;45.79;100592.94;5071355;28;20198;-60
2022/03/28 09:36:49;;;;;;;22.40;13.75;;;;;;;15.47;45.32;100594.41;5070274;28;20445;-60
2022/03/28 09:39:20;;;;;;;19.83;12.93;;;;;;;15.70;44.79;100593.88;5071082;28;20236;-61
2022/03/28 09:41:59;;;;;;;15.50;11.70;;;;;;;15.96;44.33;100590.75;5071066;28;20811;-60
2022/03/28 09:44:39;;;;;;;19.20;11.67;;;;;;;16.09;43.71;100587.44;5071149;28;20193;-60
2022/03/28 09:47:09;;;;;;;19.67;12.70;;;;;;;16.17;43.82;100578.03;5070842;28;20213;-61
2022/03/28 09:49:36;;;;;;;18.40;11.33;;;;;;;16.19;43.67;100577.19;5070669;28;20195;-62
2022/03/28 09:52:05;;;;;;;16.00;11.27;;;;;;;16.21;43.55;100567.69;5070676;28;20195;-60
2022/03/28 09:54:45;;;;;;;19.40;13.07;;;;;;;16.18;44.09;100562.47;5069402;28;20332;-61
2022/03/28 09:57:14;;;;;;;20.10;11.77;;;;;;;15.98;43.30;100544.97;5070785;28;20198;-61
2022/03/28 09:59:42;;;;;;;22.50;13.87;;;;;;;16.05;43.74;100559.72;5070893;28;20231;-60
2022/03/28 10:02:17;;;;;;;19.50;12.37;;;;;;;16.04;43.16;100524.31;5070901;28;20312;-60
2022/03/28 10:04:46;;;;;;;20.85;13.85;;;;;;;16.28;43.67;100553.06;5070263;28;20516;-58
2022/03/28 10:07:13;;;;;;;19.47;12.73;;;;;;;16.37;43.18;100545.41;5070506;28;20195;-58
2022/03/28 10:09:40;;;;;;;16.63;13.23;;;;;;;16.46;42.99;100541.13;5070190;28;20735;-58
2022/03/28 10:12:09;;;;;;;18.00;12.00;;;;;;;16.59;43.16;100533.50;5070223;28;20194;-58
2022/03/28 10:14:37;;;;;;;16.10;11.53;;;;;;;16.76;42.45;100522.41;5070663;28;20194;-59
2022/03/28 10:17:06;;;;;;;14.80;11.83;;;;;;;16.81;42.02;100525.88;5070187;28;20241;-59
2022/03/28 10:19:37;;;;;;;18.90;11.57;;;;;;;17.00;41.97;100516.53;5073251;28;20198;-58
2022/03/28 10:22:09;;;;;;;12.57;11.27;;;;;;;17.24;41.59;100515.78;5079842;28;20245;-58
2022/03/28 10:24:38;;;;;;;18.03;12.73;;;;;;;17.44;41.31;100503.78;5074728;28;20267;-58
2022/03/28 10:27:06;;;;;;;16.17;12.80;;;;;;;17.46;40.80;100497.72;5079091;28;20201;-58
2022/03/28 10:29:40;;;;;;;17.77;11.83;;;;;;;17.47;40.73;100491.66;5077220;28;20282;-58
2022/03/28 10:32:15;;;;;;;19.03;12.70;;;;;;;17.49;40.34;100489.09;5080896;28;20258;-58
2022/03/28 10:34:44;;;;;;;18.17;13.30;;;;;;;17.26;40.73;100480.31;5074327;28;20199;-58
2022/03/28 10:37:32;;;;;;;16.87;11.90;;;;;;;16.97;41.51;100475.84;5079508;28;20198;-58
2022/03/28 10:40:26;;;;;;;19.10;13.57;;;;;;;17.02;41.60;100470.66;5080035;28;20193;-58
2022/03/28 10:43:02;;;;;;;22.00;12.77;;;;;;;17.11;41.49;100461.19;5079035;28;20594;-57
2022/03/28 10:45:36;;;;;;;17.37;12.50;;;;;;;17.28;41.07;100452.63;5076010;28;20214;-58
2022/03/28 10:48:04;;;;;;;13.17;10.87;;;;;;;17.43;40.42;100450.06;5070265;28;20523;-58
2022/03/28 10:50:32;;;;;;;16.90;12.50;;;;;;;17.63;40.17;100454.50;5069502;28;20210;-57
2022/03/28 10:53:08;;;;;;;20.60;11.87;;;;;;;17.82;39.40;100447.63;5069947;28;20286;-58
2022/03/28 10:55:38;;;;;;;16.50;11.77;;;;;;;17.99;39.34;100437.28;5074345;28;20187;-58
2022/03/28 10:58:17;;;;;;;19.50;12.87;;;;;;;18.13;38.60;100439.00;5075810;28;20726;-58
2022/03/28 11:01:21;;;;;;;16.27;12.30;;;;;;;18.10;38.00;100436.38;5077296;28;20226;-59
2022/03/28 11:03:52;;;;;;;20.40;13.30;;;;;;;18.32;37.72;100426.88;5069018;28;20203;-59
2022/03/28 11:06:40;;;;;;;19.93;11.70;;;;;;;18.51;37.87;100423.44;5068373;28;20287;-59
2022/03/28 11:09:07;;;;;;;17.67;12.77;;;;;;;18.58;38.41;100411.25;5069223;28;20199;-58
2022/03/28 11:11:34;;;;;;;19.93;13.00;;;;;;;18.39;38.36;100412.13;5068500;28;20202;-59
2022/03/28 11:14:03;;;;;;;19.43;12.53;;;;;;;18.35;38.62;100405.19;5069457;28;20577;-59
2022/03/28 11:16:43;;;;;;;18.10;12.87;;;;;;;18.55;37.79;100406.06;5069258;28;20201;-58
2022/03/28 11:19:25;;;;;;;20.10;13.90;;;;;;;18.69;37.47;100394.75;5068309;28;20206;-59
2022/03/28 11:22:08;;;;;;;21.73;13.07;;;;;;;18.76;37.59;100382.59;5069108;28;20256;-58